sensor_id;sensor_type;location;lat;lon;timestamp;temperature;humidity
25871;DHT22;13689;48.590;7.752;2023-02-10T00:01:46;2.70;68.90
25871;DHT22;13689;48.590;7.752;2023-02-10T00:04:13;2.70;69.10
25871;DHT22;13689;48.590;7.752;2023-02-10T00:06:39;2.70;69.30
25871;DHT22;13689;48.590;7.752;2023-02-10T00:09:06;2.70;69.40
25871;DHT22;13689;48.590;7.752;2023-02-10T00:11:32;2.70;69.50
25871;DHT22;13689;48.590;7.752;2023-02-10T00:14:18;2.60;69.60
25871;DHT22;13689;48.590;7.752;2023-02-10T00:16:43;2.60;69.70
25871;DHT22;13689;48.590;7.752;2023-02-10T00:19:09;2.60;69.90
25871;DHT22;13689;48.590;7.752;2023-02-10T00:21:36;2.60;70.00
25871;DHT22;13689;48.590;7.752;2023-02-10T00:24:02;2.60;70.10
25871;DHT22;13689;48.590;7.752;2023-02-10T00:26:27;2.60;70.10
25871;DHT22;13689;48.590;7.752;2023-02-10T00:28:53;2.60;70.20
25871;DHT22;13689;48.590;7.752;2023-02-10T00:31:19;2.60;70.10
25871;DHT22;13689;48.590;7.752;2023-02-10T00:33:46;2.60;70.30
25871;DHT22;13689;48.590;7.752;2023-02-10T00:36:14;2.50;70.30
25871;DHT22;13689;48.590;7.752;2023-02-10T00:38:40;2.50;70.30
25871;DHT22;13689;48.590;7.752;2023-02-10T00:41:11;2.50;70.40
25871;DHT22;13689;48.590;7.752;2023-02-10T00:43:37;2.50;70.40
25871;DHT22;13689;48.590;7.752;2023-02-10T00:46:04;2.50;70.40
25871;DHT22;13689;48.590;7.752;2023-02-10T00:48:30;2.40;70.50
25871;DHT22;13689;48.590;7.752;2023-02-10T00:50:56;2.40;70.60
25871;DHT22;13689;48.590;7.752;2023-02-10T00:53:22;2.40;70.70
25871;DHT22;13689;48.590;7.752;2023-02-10T00:55:47;2.40;70.80
25871;DHT22;13689;48.590;7.752;2023-02-10T00:58:13;2.40;71.00
25871;DHT22;13689;48.590;7.752;2023-02-10T01:00:38;2.40;71.10
25871;DHT22;13689;48.590;7.752;2023-02-10T01:03:04;2.30;71.10
25871;DHT22;13689;48.590;7.752;2023-02-10T01:05:30;2.30;71.10
25871;DHT22;13689;48.590;7.752;2023-02-10T01:07:55;2.30;71.20
25871;DHT22;13689;48.590;7.752;2023-02-10T01:10:21;2.30;71.30
25871;DHT22;13689;48.590;7.752;2023-02-10T01:12:46;2.30;71.30
25871;DHT22;13689;48.590;7.752;2023-02-10T01:15:12;2.30;72.20
25871;DHT22;13689;48.590;7.752;2023-02-10T01:17:38;2.40;71.50
25871;DHT22;13689;48.590;7.752;2023-02-10T01:20:04;2.30;71.50
25871;DHT22;13689;48.590;7.752;2023-02-10T01:22:32;2.30;71.50
25871;DHT22;13689;48.590;7.752;2023-02-10T01:24:58;2.40;71.70
25871;DHT22;13689;48.590;7.752;2023-02-10T01:27:24;2.30;71.80
25871;DHT22;13689;48.590;7.752;2023-02-10T01:29:49;2.30;71.90
25871;DHT22;13689;48.590;7.752;2023-02-10T01:32:15;2.30;71.90
25871;DHT22;13689;48.590;7.752;2023-02-10T01:34:40;2.30;72.10
25871;DHT22;13689;48.590;7.752;2023-02-10T01:37:06;2.20;72.40
25871;DHT22;13689;48.590;7.752;2023-02-10T01:39:31;2.20;72.60
25871;DHT22;13689;48.590;7.752;2023-02-10T01:41:57;2.20;72.90
25871;DHT22;13689;48.590;7.752;2023-02-10T01:46:48;2.10;72.90
25871;DHT22;13689;48.590;7.752;2023-02-10T01:49:30;2.10;73.00
25871;DHT22;13689;48.590;7.752;2023-02-10T01:51:59;2.10;73.10
25871;DHT22;13689;48.590;7.752;2023-02-10T01:54:40;2.10;73.20
25871;DHT22;13689;48.590;7.752;2023-02-10T01:57:07;2.10;73.20
25871;DHT22;13689;48.590;7.752;2023-02-10T01:59:35;2.10;73.30
25871;DHT22;13689;48.590;7.752;2023-02-10T02:02:01;2.10;73.20
25871;DHT22;13689;48.590;7.752;2023-02-10T02:04:38;2.10;73.30
25871;DHT22;13689;48.590;7.752;2023-02-10T02:07:05;2.00;73.20
25871;DHT22;13689;48.590;7.752;2023-02-10T02:09:31;2.10;73.20
25871;DHT22;13689;48.590;7.752;2023-02-10T02:12:05;2.00;73.10
25871;DHT22;13689;48.590;7.752;2023-02-10T02:17:42;2.00;73.20
25871;DHT22;13689;48.590;7.752;2023-02-10T02:20:21;1.90;73.40
25871;DHT22;13689;48.590;7.752;2023-02-10T02:31:39;1.90;73.70
25871;DHT22;13689;48.590;7.752;2023-02-10T02:34:14;1.90;73.60
25871;DHT22;13689;48.590;7.752;2023-02-10T02:36:56;1.90;73.60
25871;DHT22;13689;48.590;7.752;2023-02-10T02:39:23;1.90;73.60
25871;DHT22;13689;48.590;7.752;2023-02-10T02:42:13;1.90;73.60
25871;DHT22;13689;48.590;7.752;2023-02-10T02:44:40;1.90;73.70
25871;DHT22;13689;48.590;7.752;2023-02-10T02:47:09;1.90;73.70
25871;DHT22;13689;48.590;7.752;2023-02-10T02:49:59;1.90;73.80
25871;DHT22;13689;48.590;7.752;2023-02-10T02:55:45;1.90;74.00
25871;DHT22;13689;48.590;7.752;2023-02-10T03:00:46;1.90;74.00
25871;DHT22;13689;48.590;7.752;2023-02-10T03:03:14;1.80;74.10
25871;DHT22;13689;48.590;7.752;2023-02-10T03:05:40;1.80;74.10
25871;DHT22;13689;48.590;7.752;2023-02-10T03:08:06;1.80;74.30
25871;DHT22;13689;48.590;7.752;2023-02-10T03:10:32;1.80;74.30
25871;DHT22;13689;48.590;7.752;2023-02-10T03:12:57;1.80;74.30
25871;DHT22;13689;48.590;7.752;2023-02-10T03:15:23;1.80;74.30
25871;DHT22;13689;48.590;7.752;2023-02-10T03:17:49;1.70;74.20
25871;DHT22;13689;48.590;7.752;2023-02-10T03:20:15;1.70;74.30
25871;DHT22;13689;48.590;7.752;2023-02-10T03:22:41;1.70;74.40
25871;DHT22;13689;48.590;7.752;2023-02-10T03:25:07;1.70;74.50
25871;DHT22;13689;48.590;7.752;2023-02-10T03:27:33;1.70;75.30
25871;DHT22;13689;48.590;7.752;2023-02-10T03:29:59;1.70;74.50
25871;DHT22;13689;48.590;7.752;2023-02-10T03:32:24;1.70;74.50
25871;DHT22;13689;48.590;7.752;2023-02-10T03:34:50;1.70;74.50
25871;DHT22;13689;48.590;7.752;2023-02-10T03:37:15;1.70;74.50
25871;DHT22;13689;48.590;7.752;2023-02-10T03:39:41;1.70;74.60
25871;DHT22;13689;48.590;7.752;2023-02-10T03:42:07;1.70;74.60
25871;DHT22;13689;48.590;7.752;2023-02-10T03:44:33;1.60;74.60
25871;DHT22;13689;48.590;7.752;2023-02-10T03:46:58;1.60;74.60
25871;DHT22;13689;48.590;7.752;2023-02-10T03:49:24;1.70;74.90
25871;DHT22;13689;48.590;7.752;2023-02-10T03:51:49;1.60;74.80
25871;DHT22;13689;48.590;7.752;2023-02-10T03:54:15;1.60;74.80
25871;DHT22;13689;48.590;7.752;2023-02-10T03:56:41;1.60;74.80
25871;DHT22;13689;48.590;7.752;2023-02-10T03:59:06;1.60;74.80
25871;DHT22;13689;48.590;7.752;2023-02-10T04:01:32;1.60;74.80
25871;DHT22;13689;48.590;7.752;2023-02-10T04:03:59;1.60;74.80
25871;DHT22;13689;48.590;7.752;2023-02-10T04:06:24;1.60;74.70
25871;DHT22;13689;48.590;7.752;2023-02-10T04:08:50;1.60;75.00
25871;DHT22;13689;48.590;7.752;2023-02-10T04:11:16;1.60;75.10
25871;DHT22;13689;48.590;7.752;2023-02-10T04:13:41;1.60;75.10
25871;DHT22;13689;48.590;7.752;2023-02-10T04:16:09;1.50;75.00
25871;DHT22;13689;48.590;7.752;2023-02-10T04:18:37;1.50;75.20
25871;DHT22;13689;48.590;7.752;2023-02-10T04:21:05;1.50;75.30
25871;DHT22;13689;48.590;7.752;2023-02-10T04:23:31;1.50;75.40
25871;DHT22;13689;48.590;7.752;2023-02-10T04:25:58;1.50;75.50
25871;DHT22;13689;48.590;7.752;2023-02-10T04:28:24;1.50;75.60
25871;DHT22;13689;48.590;7.752;2023-02-10T04:30:58;1.50;75.50
25871;DHT22;13689;48.590;7.752;2023-02-10T04:33:24;1.50;75.60
25871;DHT22;13689;48.590;7.752;2023-02-10T04:35:51;1.50;75.80
25871;DHT22;13689;48.590;7.752;2023-02-10T04:38:17;1.50;75.90
25871;DHT22;13689;48.590;7.752;2023-02-10T04:40:43;1.50;76.00
25871;DHT22;13689;48.590;7.752;2023-02-10T04:43:10;1.50;76.00
25871;DHT22;13689;48.590;7.752;2023-02-10T04:45:37;1.40;76.10
25871;DHT22;13689;48.590;7.752;2023-02-10T04:48:03;1.40;76.20
25871;DHT22;13689;48.590;7.752;2023-02-10T04:50:28;1.40;76.20
25871;DHT22;13689;48.590;7.752;2023-02-10T04:52:54;1.40;76.20
25871;DHT22;13689;48.590;7.752;2023-02-10T04:55:20;1.40;76.40
25871;DHT22;13689;48.590;7.752;2023-02-10T04:57:45;1.40;76.40
25871;DHT22;13689;48.590;7.752;2023-02-10T05:00:12;1.40;76.40
25871;DHT22;13689;48.590;7.752;2023-02-10T05:02:37;1.40;76.50
25871;DHT22;13689;48.590;7.752;2023-02-10T05:05:04;1.40;76.60
25871;DHT22;13689;48.590;7.752;2023-02-10T05:07:30;1.40;76.70
25871;DHT22;13689;48.590;7.752;2023-02-10T05:09:56;1.40;76.80
25871;DHT22;13689;48.590;7.752;2023-02-10T05:12:22;1.30;76.80
25871;DHT22;13689;48.590;7.752;2023-02-10T05:14:48;1.30;76.70
25871;DHT22;13689;48.590;7.752;2023-02-10T05:17:13;1.30;76.80
25871;DHT22;13689;48.590;7.752;2023-02-10T05:19:39;1.30;77.00
25871;DHT22;13689;48.590;7.752;2023-02-10T05:22:05;1.30;77.20
25871;DHT22;13689;48.590;7.752;2023-02-10T05:24:31;1.30;77.40
25871;DHT22;13689;48.590;7.752;2023-02-10T05:26:56;1.30;77.30
25871;DHT22;13689;48.590;7.752;2023-02-10T05:29:22;1.30;77.30
25871;DHT22;13689;48.590;7.752;2023-02-10T05:31:47;1.30;77.50
25871;DHT22;13689;48.590;7.752;2023-02-10T05:34:13;1.30;77.50
25871;DHT22;13689;48.590;7.752;2023-02-10T05:36:39;1.30;77.50
25871;DHT22;13689;48.590;7.752;2023-02-10T05:39:04;1.20;77.50
25871;DHT22;13689;48.590;7.752;2023-02-10T05:41:48;1.20;77.80
25871;DHT22;13689;48.590;7.752;2023-02-10T05:44:14;1.30;78.00
25871;DHT22;13689;48.590;7.752;2023-02-10T05:46:39;1.20;78.00
25871;DHT22;13689;48.590;7.752;2023-02-10T05:49:05;1.20;78.10
25871;DHT22;13689;48.590;7.752;2023-02-10T05:51:31;1.20;78.10
25871;DHT22;13689;48.590;7.752;2023-02-10T05:53:56;1.20;78.10
25871;DHT22;13689;48.590;7.752;2023-02-10T05:56:22;1.20;78.20
25871;DHT22;13689;48.590;7.752;2023-02-10T05:58:48;1.20;78.00
25871;DHT22;13689;48.590;7.752;2023-02-10T06:01:13;1.20;78.00
25871;DHT22;13689;48.590;7.752;2023-02-10T06:03:39;1.20;78.00
25871;DHT22;13689;48.590;7.752;2023-02-10T06:06:05;1.20;78.10
25871;DHT22;13689;48.590;7.752;2023-02-10T06:08:30;1.20;78.10
25871;DHT22;13689;48.590;7.752;2023-02-10T06:10:56;1.20;78.10
25871;DHT22;13689;48.590;7.752;2023-02-10T06:13:22;1.10;78.30
25871;DHT22;13689;48.590;7.752;2023-02-10T06:15:47;1.10;78.30
25871;DHT22;13689;48.590;7.752;2023-02-10T06:18:13;1.10;78.40
25871;DHT22;13689;48.590;7.752;2023-02-10T06:20:39;1.10;78.50
25871;DHT22;13689;48.590;7.752;2023-02-10T06:23:04;1.10;78.50
25871;DHT22;13689;48.590;7.752;2023-02-10T06:25:30;1.10;78.40
25871;DHT22;13689;48.590;7.752;2023-02-10T06:27:55;1.10;78.40
25871;DHT22;13689;48.590;7.752;2023-02-10T06:30:21;1.10;78.30
25871;DHT22;13689;48.590;7.752;2023-02-10T06:32:47;1.10;78.40
25871;DHT22;13689;48.590;7.752;2023-02-10T06:35:12;1.10;78.40
25871;DHT22;13689;48.590;7.752;2023-02-10T06:37:38;1.10;78.40
25871;DHT22;13689;48.590;7.752;2023-02-10T06:40:05;1.10;78.40
25871;DHT22;13689;48.590;7.752;2023-02-10T06:42:32;1.10;78.30
25871;DHT22;13689;48.590;7.752;2023-02-10T06:44:58;1.10;78.30
25871;DHT22;13689;48.590;7.752;2023-02-10T06:47:23;1.10;78.30
25871;DHT22;13689;48.590;7.752;2023-02-10T06:49:49;1.10;78.30
25871;DHT22;13689;48.590;7.752;2023-02-10T06:52:14;1.10;78.30
25871;DHT22;13689;48.590;7.752;2023-02-10T06:54:40;1.10;78.30
25871;DHT22;13689;48.590;7.752;2023-02-10T06:57:07;1.10;78.50
25871;DHT22;13689;48.590;7.752;2023-02-10T06:59:33;1.20;78.50
25871;DHT22;13689;48.590;7.752;2023-02-10T07:01:59;1.10;78.40
25871;DHT22;13689;48.590;7.752;2023-02-10T07:04:29;1.20;78.50
25871;DHT22;13689;48.590;7.752;2023-02-10T07:06:56;1.20;78.50
25871;DHT22;13689;48.590;7.752;2023-02-10T07:09:21;1.20;78.50
25871;DHT22;13689;48.590;7.752;2023-02-10T07:11:47;1.20;78.60
25871;DHT22;13689;48.590;7.752;2023-02-10T07:14:13;1.20;78.60
25871;DHT22;13689;48.590;7.752;2023-02-10T07:16:39;1.20;78.60
25871;DHT22;13689;48.590;7.752;2023-02-10T07:19:05;1.20;78.60
25871;DHT22;13689;48.590;7.752;2023-02-10T07:21:31;1.20;78.60
25871;DHT22;13689;48.590;7.752;2023-02-10T07:23:56;1.20;78.60
25871;DHT22;13689;48.590;7.752;2023-02-10T07:26:22;1.20;78.60
25871;DHT22;13689;48.590;7.752;2023-02-10T07:28:48;1.30;78.70
25871;DHT22;13689;48.590;7.752;2023-02-10T07:31:13;1.30;78.70
25871;DHT22;13689;48.590;7.752;2023-02-10T07:33:39;1.30;78.70
25871;DHT22;13689;48.590;7.752;2023-02-10T07:36:06;1.30;78.70
25871;DHT22;13689;48.590;7.752;2023-02-10T07:38:31;1.30;78.70
25871;DHT22;13689;48.590;7.752;2023-02-10T07:40:58;1.30;78.60
25871;DHT22;13689;48.590;7.752;2023-02-10T07:43:23;1.40;78.70
25871;DHT22;13689;48.590;7.752;2023-02-10T07:45:49;1.40;78.70
25871;DHT22;13689;48.590;7.752;2023-02-10T07:48:18;1.40;78.60
25871;DHT22;13689;48.590;7.752;2023-02-10T07:50:46;1.40;78.60
25871;DHT22;13689;48.590;7.752;2023-02-10T07:53:12;1.40;78.70
25871;DHT22;13689;48.590;7.752;2023-02-10T07:55:38;1.40;78.90
25871;DHT22;13689;48.590;7.752;2023-02-10T07:58:04;1.50;79.00
25871;DHT22;13689;48.590;7.752;2023-02-10T08:00:30;1.40;78.90
25871;DHT22;13689;48.590;7.752;2023-02-10T08:02:56;1.50;79.00
25871;DHT22;13689;48.590;7.752;2023-02-10T08:05:21;1.50;79.00
25871;DHT22;13689;48.590;7.752;2023-02-10T08:07:48;1.50;78.90
25871;DHT22;13689;48.590;7.752;2023-02-10T08:10:14;1.60;78.90
25871;DHT22;13689;48.590;7.752;2023-02-10T08:12:39;1.50;78.80
25871;DHT22;13689;48.590;7.752;2023-02-10T08:15:06;1.60;79.00
25871;DHT22;13689;48.590;7.752;2023-02-10T08:17:33;1.60;78.80
25871;DHT22;13689;48.590;7.752;2023-02-10T08:19:58;1.60;78.80
25871;DHT22;13689;48.590;7.752;2023-02-10T08:22:24;1.60;79.00
25871;DHT22;13689;48.590;7.752;2023-02-10T08:24:50;1.70;78.90
25871;DHT22;13689;48.590;7.752;2023-02-10T08:27:16;1.70;78.70
25871;DHT22;13689;48.590;7.752;2023-02-10T08:29:41;1.70;78.70
25871;DHT22;13689;48.590;7.752;2023-02-10T08:32:07;1.80;78.80
25871;DHT22;13689;48.590;7.752;2023-02-10T08:34:33;1.80;78.80
25871;DHT22;13689;48.590;7.752;2023-02-10T08:36:59;1.80;78.60
25871;DHT22;13689;48.590;7.752;2023-02-10T08:39:27;1.80;78.60
25871;DHT22;13689;48.590;7.752;2023-02-10T08:41:53;1.80;78.60
25871;DHT22;13689;48.590;7.752;2023-02-10T08:44:19;1.90;78.60
25871;DHT22;13689;48.590;7.752;2023-02-10T08:46:44;1.90;78.60
25871;DHT22;13689;48.590;7.752;2023-02-10T08:49:10;1.90;78.40
25871;DHT22;13689;48.590;7.752;2023-02-10T08:51:35;2.00;78.60
25871;DHT22;13689;48.590;7.752;2023-02-10T08:54:03;2.00;78.50
25871;DHT22;13689;48.590;7.752;2023-02-10T08:56:29;2.00;78.50
25871;DHT22;13689;48.590;7.752;2023-02-10T08:58:55;2.10;78.60
25871;DHT22;13689;48.590;7.752;2023-02-10T09:01:23;2.20;78.70
25871;DHT22;13689;48.590;7.752;2023-02-10T09:03:51;2.30;78.60
25871;DHT22;13689;48.590;7.752;2023-02-10T09:06:24;2.50;78.40
25871;DHT22;13689;48.590;7.752;2023-02-10T09:08:51;3.10;78.40
25871;DHT22;13689;48.590;7.752;2023-02-10T09:11:19;4.30;78.20
25871;DHT22;13689;48.590;7.752;2023-02-10T09:13:44;5.20;77.00
25871;DHT22;13689;48.590;7.752;2023-02-10T09:16:10;6.10;75.70
25871;DHT22;13689;48.590;7.752;2023-02-10T09:18:35;7.10;74.70
25871;DHT22;13689;48.590;7.752;2023-02-10T09:21:01;8.10;73.10
25871;DHT22;13689;48.590;7.752;2023-02-10T09:23:27;8.90;71.40
25871;DHT22;13689;48.590;7.752;2023-02-10T09:25:54;9.70;69.80
25871;DHT22;13689;48.590;7.752;2023-02-10T09:28:20;10.40;68.30
25871;DHT22;13689;48.590;7.752;2023-02-10T09:30:47;11.10;67.00
25871;DHT22;13689;48.590;7.752;2023-02-10T09:33:13;11.70;65.00
25871;DHT22;13689;48.590;7.752;2023-02-10T09:35:39;12.10;63.30
25871;DHT22;13689;48.590;7.752;2023-02-10T09:38:08;12.40;62.10
25871;DHT22;13689;48.590;7.752;2023-02-10T09:44:11;12.70;60.20
25871;DHT22;13689;48.590;7.752;2023-02-10T09:46:18;12.80;59.50
25871;DHT22;13689;48.590;7.752;2023-02-10T09:54:01;13.00;58.50
25871;DHT22;13689;48.590;7.752;2023-02-10T09:56:27;13.00;58.10
25871;DHT22;13689;48.590;7.752;2023-02-10T09:58:56;13.00;57.50
25871;DHT22;13689;48.590;7.752;2023-02-10T10:01:27;13.00;57.40
25871;DHT22;13689;48.590;7.752;2023-02-10T10:04:13;13.00;56.80
25871;DHT22;13689;48.590;7.752;2023-02-10T10:06:42;13.00;56.00
25871;DHT22;13689;48.590;7.752;2023-02-10T10:11:43;13.00;54.60
25871;DHT22;13689;48.590;7.752;2023-02-10T10:14:37;13.10;54.40
25871;DHT22;13689;48.590;7.752;2023-02-10T10:20:19;13.60;53.50
25871;DHT22;13689;48.590;7.752;2023-02-10T10:31:14;14.80;50.00
25871;DHT22;13689;48.590;7.752;2023-02-10T10:36:21;15.40;48.00
25871;DHT22;13689;48.590;7.752;2023-02-10T10:41:40;15.90;46.40
25871;DHT22;13689;48.590;7.752;2023-02-10T10:44:07;16.20;46.30
25871;DHT22;13689;48.590;7.752;2023-02-10T10:49:06;15.70;44.50
25871;DHT22;13689;48.590;7.752;2023-02-10T10:51:32;13.20;45.80
25871;DHT22;13689;48.590;7.752;2023-02-10T10:54:00;11.30;48.40
25871;DHT22;13689;48.590;7.752;2023-02-10T10:59:25;8.80;51.90
25871;DHT22;13689;48.590;7.752;2023-02-10T11:01:53;8.10;52.80
25871;DHT22;13689;48.590;7.752;2023-02-10T11:04:24;7.60;53.20
25871;DHT22;13689;48.590;7.752;2023-02-10T11:06:53;7.20;53.70
25871;DHT22;13689;48.590;7.752;2023-02-10T11:09:34;6.90;54.50
25871;DHT22;13689;48.590;7.752;2023-02-10T11:12:27;6.70;55.00
25871;DHT22;13689;48.590;7.752;2023-02-10T11:14:53;6.50;55.10
25871;DHT22;13689;48.590;7.752;2023-02-10T11:17:28;6.40;55.30
25871;DHT22;13689;48.590;7.752;2023-02-10T11:22:37;6.30;55.60
25871;DHT22;13689;48.590;7.752;2023-02-10T11:25:31;6.30;55.70
25871;DHT22;13689;48.590;7.752;2023-02-10T11:27:58;6.20;56.00
25871;DHT22;13689;48.590;7.752;2023-02-10T11:30:30;6.20;56.00
25871;DHT22;13689;48.590;7.752;2023-02-10T11:32:56;6.10;56.10
25871;DHT22;13689;48.590;7.752;2023-02-10T11:35:24;6.10;56.40
25871;DHT22;13689;48.590;7.752;2023-02-10T11:37:56;6.10;56.60
25871;DHT22;13689;48.590;7.752;2023-02-10T11:42:50;6.10;56.90
25871;DHT22;13689;48.590;7.752;2023-02-10T11:47:44;6.10;57.10
25871;DHT22;13689;48.590;7.752;2023-02-10T11:50:22;6.10;57.30
25871;DHT22;13689;48.590;7.752;2023-02-10T11:52:48;6.10;57.40
25871;DHT22;13689;48.590;7.752;2023-02-10T11:55:15;6.10;57.40
25871;DHT22;13689;48.590;7.752;2023-02-10T12:01:09;6.00;57.50
25871;DHT22;13689;48.590;7.752;2023-02-10T12:03:59;6.10;57.60
25871;DHT22;13689;48.590;7.752;2023-02-10T12:06:36;6.10;58.30
25871;DHT22;13689;48.590;7.752;2023-02-10T12:23:08;6.20;57.80
25871;DHT22;13689;48.590;7.752;2023-02-10T12:28:36;6.20;57.80
25871;DHT22;13689;48.590;7.752;2023-02-10T12:41:57;6.30;58.00
25871;DHT22;13689;48.590;7.752;2023-02-10T12:44:43;6.40;58.10
25871;DHT22;13689;48.590;7.752;2023-02-10T12:50:58;6.40;57.90
25871;DHT22;13689;48.590;7.752;2023-02-10T12:53:31;6.40;57.60
25871;DHT22;13689;48.590;7.752;2023-02-10T12:56:10;6.40;57.70
25871;DHT22;13689;48.590;7.752;2023-02-10T12:58:44;6.40;57.60
25871;DHT22;13689;48.590;7.752;2023-02-10T13:03:49;6.50;57.60
25871;DHT22;13689;48.590;7.752;2023-02-10T13:06:48;6.50;57.50
25871;DHT22;13689;48.590;7.752;2023-02-10T13:09:17;6.60;57.50
25871;DHT22;13689;48.590;7.752;2023-02-10T13:12:11;6.50;57.50
25871;DHT22;13689;48.590;7.752;2023-02-10T13:14:40;6.50;57.60
25871;DHT22;13689;48.590;7.752;2023-02-10T13:17:08;6.60;57.60
25871;DHT22;13689;48.590;7.752;2023-02-10T13:19:45;6.60;57.40
25871;DHT22;13689;48.590;7.752;2023-02-10T13:22:40;6.60;57.30
25871;DHT22;13689;48.590;7.752;2023-02-10T13:25:12;6.60;57.10
25871;DHT22;13689;48.590;7.752;2023-02-10T13:28:01;6.70;56.80
25871;DHT22;13689;48.590;7.752;2023-02-10T13:33:13;6.70;56.60
25871;DHT22;13689;48.590;7.752;2023-02-10T13:35:41;6.70;56.40
25871;DHT22;13689;48.590;7.752;2023-02-10T13:38:09;6.70;56.30
25871;DHT22;13689;48.590;7.752;2023-02-10T13:40:56;6.70;56.20
25871;DHT22;13689;48.590;7.752;2023-02-10T13:43:43;6.70;55.90
25871;DHT22;13689;48.590;7.752;2023-02-10T13:46:26;6.70;55.80
25871;DHT22;13689;48.590;7.752;2023-02-10T13:48:55;6.70;55.80
25871;DHT22;13689;48.590;7.752;2023-02-10T13:51:33;6.70;55.70
25871;DHT22;13689;48.590;7.752;2023-02-10T13:54:00;6.70;55.70
25871;DHT22;13689;48.590;7.752;2023-02-10T13:56:29;6.70;55.80
25871;DHT22;13689;48.590;7.752;2023-02-10T13:59:00;6.70;55.80
25871;DHT22;13689;48.590;7.752;2023-02-10T14:01:48;6.80;55.80
25871;DHT22;13689;48.590;7.752;2023-02-10T14:06:50;6.90;55.70
25871;DHT22;13689;48.590;7.752;2023-02-10T14:12:01;7.00;55.70
25871;DHT22;13689;48.590;7.752;2023-02-10T14:17:22;7.10;55.60
25871;DHT22;13689;48.590;7.752;2023-02-10T14:19:51;7.10;55.50
25871;DHT22;13689;48.590;7.752;2023-02-10T14:22:33;7.10;55.50
25871;DHT22;13689;48.590;7.752;2023-02-10T14:25:53;7.10;55.50
25871;DHT22;13689;48.590;7.752;2023-02-10T14:27:50;7.10;55.60
25871;DHT22;13689;48.590;7.752;2023-02-10T14:30:22;7.10;55.60
25871;DHT22;13689;48.590;7.752;2023-02-10T14:32:50;7.10;55.60
25871;DHT22;13689;48.590;7.752;2023-02-10T14:35:21;7.00;55.40
25871;DHT22;13689;48.590;7.752;2023-02-10T14:37:52;7.10;55.40
25871;DHT22;13689;48.590;7.752;2023-02-10T14:40:19;7.10;55.40
25871;DHT22;13689;48.590;7.752;2023-02-10T14:42:45;7.00;55.30
25871;DHT22;13689;48.590;7.752;2023-02-10T14:45:25;7.00;55.30
25871;DHT22;13689;48.590;7.752;2023-02-10T14:47:55;7.00;55.30
25871;DHT22;13689;48.590;7.752;2023-02-10T14:50:32;7.00;55.30
25871;DHT22;13689;48.590;7.752;2023-02-10T14:52:59;7.00;55.40
25871;DHT22;13689;48.590;7.752;2023-02-10T14:55:38;6.90;55.40
25871;DHT22;13689;48.590;7.752;2023-02-10T14:58:14;6.90;55.50
25871;DHT22;13689;48.590;7.752;2023-02-10T15:00:51;6.90;55.50
25871;DHT22;13689;48.590;7.752;2023-02-10T15:03:18;6.90;55.50
25871;DHT22;13689;48.590;7.752;2023-02-10T15:05:46;6.80;55.60
25871;DHT22;13689;48.590;7.752;2023-02-10T15:08:21;6.80;55.70
25871;DHT22;13689;48.590;7.752;2023-02-10T15:10:52;6.80;55.90
25871;DHT22;13689;48.590;7.752;2023-02-10T15:13:32;6.80;55.90
25871;DHT22;13689;48.590;7.752;2023-02-10T15:15:59;6.70;56.00
25871;DHT22;13689;48.590;7.752;2023-02-10T15:18:29;6.70;56.00
25871;DHT22;13689;48.590;7.752;2023-02-10T15:21:04;6.70;56.10
25871;DHT22;13689;48.590;7.752;2023-02-10T15:23:30;6.70;56.10
25871;DHT22;13689;48.590;7.752;2023-02-10T15:26:06;6.70;56.10
25871;DHT22;13689;48.590;7.752;2023-02-10T15:28:41;6.70;56.10
25871;DHT22;13689;48.590;7.752;2023-02-10T15:33:58;6.70;56.20
25871;DHT22;13689;48.590;7.752;2023-02-10T15:36:29;6.70;56.30
25871;DHT22;13689;48.590;7.752;2023-02-10T15:43:53;6.70;56.50
25871;DHT22;13689;48.590;7.752;2023-02-10T15:46:19;6.70;56.60
25871;DHT22;13689;48.590;7.752;2023-02-10T15:48:47;6.70;56.60
25871;DHT22;13689;48.590;7.752;2023-02-10T15:51:25;6.70;56.70
25871;DHT22;13689;48.590;7.752;2023-02-10T15:53:51;6.70;56.80
25871;DHT22;13689;48.590;7.752;2023-02-10T15:56:21;6.60;56.80
25871;DHT22;13689;48.590;7.752;2023-02-10T15:58:46;6.60;56.90
25871;DHT22;13689;48.590;7.752;2023-02-10T16:01:12;6.60;57.00
25871;DHT22;13689;48.590;7.752;2023-02-10T16:03:38;6.60;57.10
25871;DHT22;13689;48.590;7.752;2023-02-10T16:06:03;6.60;57.20
25871;DHT22;13689;48.590;7.752;2023-02-10T16:08:29;6.60;57.30
25871;DHT22;13689;48.590;7.752;2023-02-10T16:10:55;6.60;57.30
25871;DHT22;13689;48.590;7.752;2023-02-10T16:13:21;6.60;57.30
25871;DHT22;13689;48.590;7.752;2023-02-10T16:15:47;6.50;57.40
25871;DHT22;13689;48.590;7.752;2023-02-10T16:18:17;6.60;57.50
25871;DHT22;13689;48.590;7.752;2023-02-10T16:20:43;6.50;57.50
25871;DHT22;13689;48.590;7.752;2023-02-10T16:23:12;6.50;58.10
25871;DHT22;13689;48.590;7.752;2023-02-10T16:25:38;6.50;57.60
25871;DHT22;13689;48.590;7.752;2023-02-10T16:28:05;6.40;57.60
25871;DHT22;13689;48.590;7.752;2023-02-10T16:30:31;6.40;57.70
25871;DHT22;13689;48.590;7.752;2023-02-10T16:32:59;6.40;57.80
25871;DHT22;13689;48.590;7.752;2023-02-10T16:35:25;6.30;57.80
25871;DHT22;13689;48.590;7.752;2023-02-10T16:37:52;6.30;57.90
25871;DHT22;13689;48.590;7.752;2023-02-10T16:40:24;6.20;58.00
25871;DHT22;13689;48.590;7.752;2023-02-10T16:42:50;6.20;58.10
25871;DHT22;13689;48.590;7.752;2023-02-10T16:45:16;6.20;58.20
25871;DHT22;13689;48.590;7.752;2023-02-10T16:47:42;6.30;58.30
25871;DHT22;13689;48.590;7.752;2023-02-10T16:50:36;6.20;58.40
25871;DHT22;13689;48.590;7.752;2023-02-10T16:53:03;6.20;58.40
25871;DHT22;13689;48.590;7.752;2023-02-10T16:55:31;6.20;58.40
25871;DHT22;13689;48.590;7.752;2023-02-10T16:57:56;6.10;58.50
25871;DHT22;13689;48.590;7.752;2023-02-10T17:00:23;6.10;58.60
25871;DHT22;13689;48.590;7.752;2023-02-10T17:02:49;6.10;58.70
25871;DHT22;13689;48.590;7.752;2023-02-10T17:05:15;6.00;58.70
25871;DHT22;13689;48.590;7.752;2023-02-10T17:07:41;6.10;58.80
25871;DHT22;13689;48.590;7.752;2023-02-10T17:10:13;6.10;58.80
25871;DHT22;13689;48.590;7.752;2023-02-10T17:12:39;6.10;58.80
25871;DHT22;13689;48.590;7.752;2023-02-10T17:15:05;6.00;58.80
25871;DHT22;13689;48.590;7.752;2023-02-10T17:17:31;6.00;58.80
25871;DHT22;13689;48.590;7.752;2023-02-10T17:19:56;6.00;58.90
25871;DHT22;13689;48.590;7.752;2023-02-10T17:22:24;6.00;58.90
25871;DHT22;13689;48.590;7.752;2023-02-10T17:24:49;6.00;59.00
25871;DHT22;13689;48.590;7.752;2023-02-10T17:27:16;6.00;59.00
25871;DHT22;13689;48.590;7.752;2023-02-10T17:29:42;6.00;59.00
25871;DHT22;13689;48.590;7.752;2023-02-10T17:32:11;6.00;58.90
25871;DHT22;13689;48.590;7.752;2023-02-10T17:34:40;6.00;59.00
25871;DHT22;13689;48.590;7.752;2023-02-10T17:37:06;6.00;58.90
25871;DHT22;13689;48.590;7.752;2023-02-10T17:39:37;5.90;59.00
25871;DHT22;13689;48.590;7.752;2023-02-10T17:42:04;5.90;59.10
25871;DHT22;13689;48.590;7.752;2023-02-10T17:44:30;5.90;59.10
25871;DHT22;13689;48.590;7.752;2023-02-10T17:46:59;5.90;59.20
25871;DHT22;13689;48.590;7.752;2023-02-10T17:49:28;5.80;59.20
25871;DHT22;13689;48.590;7.752;2023-02-10T17:51:54;5.80;59.30